Time;durP1;ratioP1;P1;durP2;ratioP2;P2;SDS_P1;SDS_P2;PMS_P1;PMS_P2;Temp;Humidity;BMP_temperature;BMP_pressure;BME280_temperature;BME280_humidity;BME280_pressure;Samples;Min_cycle;Max_cycle;Signal;HPM_P1;HPM_P2
2021/03/24 00:01:42;;;;;;;60.72;34.78;;;7.50;82.60;;;;;;4973473;28;20073;-52
2021/03/24 00:04:28;;;;;;;61.97;36.47;;;7.40;82.70;;;;;;4993056;28;20133;-54
2021/03/24 00:07:14;;;;;;;65.10;38.75;;;7.30;83.20;;;;;;4990358;28;20081;-53
2021/03/24 00:10:00;;;;;;;70.45;40.13;;;7.20;83.40;;;;;;4991939;28;20046;-53
2021/03/24 00:12:46;;;;;;;65.70;38.95;;;7.20;83.60;;;;;;4974189;28;20075;-52
2021/03/24 00:15:32;;;;;;;73.18;41.75;;;7.10;84.10;;;;;;4990820;28;20050;-54
2021/03/24 00:18:18;;;;;;;72.70;42.05;;;7.00;84.40;;;;;;4992338;28;20073;-51
2021/03/24 00:21:06;;;;;;;76.30;42.65;;;7.00;84.60;;;;;;4992861;28;20049;-52
2021/03/24 00:23:51;;;;;;;72.75;41.90;;;7.00;84.80;;;;;;4981794;28;20503;-54
2021/03/24 00:26:37;;;;;;;72.90;41.08;;;6.90;85.10;;;;;;4985792;28;20050;-52
2021/03/24 00:29:23;;;;;;;76.82;43.17;;;6.80;85.30;;;;;;5002734;28;20054;-53
2021/03/24 00:32:09;;;;;;;74.68;42.53;;;6.80;85.60;;;;;;4984910;28;20061;-55
2021/03/24 00:34:55;;;;;;;71.40;40.97;;;6.70;85.80;;;;;;4986923;28;20046;-53
2021/03/24 00:37:41;;;;;;;74.57;42.88;;;6.70;86.10;;;;;;4988368;28;20523;-54
2021/03/24 00:40:39;;;;;;;75.32;42.97;;;6.60;86.20;;;;;;4991491;28;20170;-55
2021/03/24 00:43:26;;;;;;;73.35;42.17;;;6.50;86.70;;;;;;4983916;28;20134;-52
2021/03/24 00:46:12;;;;;;;88.55;44.25;;;6.50;86.60;;;;;;4991733;28;20396;-53
2021/03/24 00:48:57;;;;;;;74.68;42.03;;;6.60;87.10;;;;;;4990828;28;20046;-53
2021/03/24 00:51:43;;;;;;;76.38;42.22;;;6.60;86.70;;;;;;4990865;28;20447;-52
2021/03/24 00:54:28;;;;;;;78.13;43.33;;;6.50;86.80;;;;;;4985640;28;20129;-53
2021/03/24 00:57:14;;;;;;;79.50;43.45;;;6.50;87.10;;;;;;4989149;28;20078;-52
2021/03/24 01:00:00;;;;;;;77.93;43.75;;;6.40;87.00;;;;;;4980601;28;20038;-54
2021/03/24 01:02:46;;;;;;;82.10;42.72;;;6.40;87.30;;;;;;4989086;28;20537;-52
2021/03/24 01:05:31;;;;;;;80.13;43.38;;;6.40;87.40;;;;;;4982574;28;20138;-54
2021/03/24 01:08:21;;;;;;;80.43;42.17;;;6.30;87.40;;;;;;4990581;28;20081;-52
2021/03/24 01:11:07;;;;;;;79.25;43.80;;;6.30;87.60;;;;;;4979685;28;20133;-53
2021/03/24 01:13:53;;;;;;;83.25;43.58;;;6.30;87.30;;;;;;4982628;28;20129;-52
2021/03/24 01:16:38;;;;;;;75.22;42.40;;;6.20;87.60;;;;;;4990567;28;20446;-55
2021/03/24 01:19:24;;;;;;;81.60;43.17;;;6.20;87.80;;;;;;4989131;28;20054;-51
2021/03/24 01:22:10;;;;;;;78.35;42.67;;;6.20;87.80;;;;;;4991543;28;20108;-50
2021/03/24 01:24:58;;;;;;;75.30;42.25;;;6.10;87.90;;;;;;4991443;28;20046;-50
2021/03/24 01:27:44;;;;;;;77.95;43.42;;;6.10;87.70;;;;;;4990214;28;20467;-54
2021/03/24 01:30:30;;;;;;;73.47;41.85;;;6.10;88.00;;;;;;4988840;28;20173;-53
2021/03/24 01:33:16;;;;;;;80.88;42.78;;;6.10;87.70;;;;;;4989623;28;20050;-54
2021/03/24 01:36:02;;;;;;;72.88;41.47;;;6.10;87.90;;;;;;4990742;28;20442;-52
2021/03/24 01:38:49;;;;;;;77.28;42.92;;;6.00;88.00;;;;;;4991368;28;20046;-50
2021/03/24 01:41:35;;;;;;;81.35;43.78;;;6.00;88.50;;;;;;4989712;28;20574;-53
2021/03/24 01:44:21;;;;;;;82.60;43.67;;;6.00;88.60;;;;;;4988891;28;20050;-53
2021/03/24 01:47:07;;;;;;;87.85;43.78;;;6.00;88.20;;;;;;4989003;28;20453;-53
2021/03/24 01:49:53;;;;;;;83.40;43.50;;;6.00;88.50;;;;;;4989458;28;20050;-52
2021/03/24 01:52:39;;;;;;;83.93;43.63;;;6.00;88.50;;;;;;4989228;28;20081;-51
2021/03/24 01:55:26;;;;;;;92.72;44.40;;;5.90;88.50;;;;;;4985112;28;20042;-52
2021/03/24 01:58:12;;;;;;;78.75;43.78;;;5.90;88.60;;;;;;4990470;28;20053;-52
2021/03/24 02:00:58;;;;;;;82.03;43.88;;;5.90;88.60;;;;;;4991071;28;20049;-51
2021/03/24 02:03:44;;;;;;;85.20;42.88;;;5.90;88.50;;;;;;4985365;28;20388;-50
2021/03/24 02:06:39;;;;;;;79.68;42.22;;;5.90;88.60;;;;;;4984117;28;20060;-53
2021/03/24 02:09:34;;;;;;;78.80;42.22;;;5.80;88.80;;;;;;4987646;28;20085;-54
2021/03/24 02:12:34;;;;;;;84.00;43.50;;;5.80;88.80;;;;;;4990333;28;20561;-53
2021/03/24 02:15:31;;;;;;;84.43;42.90;;;5.80;88.60;;;;;;4989172;28;20370;-54
2021/03/24 02:18:19;;;;;;;81.63;43.13;;;5.80;88.80;;;;;;4990306;28;20050;-54
2021/03/24 02:21:10;;;;;;;89.40;44.42;;;5.80;88.90;;;;;;4987340;28;20038;-53
2021/03/24 02:24:11;;;;;;;82.13;42.95;;;5.80;89.10;;;;;;4989806;28;20070;-53
2021/03/24 02:27:13;;;;;;;89.20;44.10;;;5.80;89.10;;;;;;4988512;28;20049;-50
2021/03/24 02:30:17;;;;;;;79.25;43.45;;;5.80;89.10;;;;;;4986946;28;20038;-54
2021/03/24 02:33:32;;;;;;;85.85;45.90;;;5.80;89.00;;;;;;4988528;28;20054;-52
2021/03/24 02:36:20;;;;;;;92.68;45.90;;;5.80;89.10;;;;;;4986058;28;20043;-55
2021/03/24 02:39:09;;;;;;;90.25;45.80;;;5.80;89.10;;;;;;4990906;28;20058;-56
2021/03/24 02:41:58;;;;;;;91.45;45.90;;;5.70;89.10;;;;;;4987594;28;20074;-53
2021/03/24 02:44:44;;;;;;;87.63;45.92;;;5.70;89.20;;;;;;4986301;28;20085;-52
2021/03/24 02:47:30;;;;;;;90.43;47.03;;;5.70;89.20;;;;;;4986287;28;20116;-53
2021/03/24 02:50:19;;;;;;;88.13;46.15;;;5.70;89.20;;;;;;4980987;28;20419;-51
2021/03/24 02:53:06;;;;;;;93.25;45.70;;;5.70;89.30;;;;;;4988402;28;20133;-51
2021/03/24 02:55:55;;;;;;;91.60;45.50;;;5.60;89.50;;;;;;4988118;28;20038;-54
2021/03/24 02:58:41;;;;;;;94.60;47.20;;;5.70;89.80;;;;;;4980252;28;20051;-53
2021/03/24 03:01:34;;;;;;;97.22;48.97;;;5.70;89.90;;;;;;4979303;28;20061;-54
2021/03/24 03:04:24;;;;;;;;;;;5.70;90.10;;;;;;4989546;28;20047;-51
2021/03/24 03:07:18;;;;;;;97.82;48.20;;;5.70;90.00;;;;;;4978109;28;19994;-55
2021/03/24 03:10:12;;;;;;;99.25;48.45;;;5.80;90.00;;;;;;4992883;28;20129;-52
2021/03/24 03:13:09;;;;;;;94.25;47.67;;;5.90;90.00;;;;;;4984382;28;20065;-53
2021/03/24 03:16:06;;;;;;;94.28;47.05;;;5.80;89.80;;;;;;4967263;28;20094;-53
2021/03/24 03:19:04;;;;;;;102.20;48.60;;;5.90;90.00;;;;;;4986404;28;20395;-51
2021/03/24 03:22:04;;;;;;;108.80;50.50;;;5.90;90.00;;;;;;4987054;28;20038;-51
2021/03/24 03:25:10;;;;;;;95.63;48.22;;;5.80;90.00;;;;;;4985217;28;20045;-54
2021/03/24 03:27:59;;;;;;;99.63;49.05;;;5.90;90.20;;;;;;4961108;28;20142;-51
2021/03/24 03:30:51;;;;;;;99.75;47.72;;;5.80;90.10;;;;;;4987217;28;20125;-54
2021/03/24 03:33:39;;;;;;;100.60;49.05;;;5.80;90.40;;;;;;4986087;28;20569;-52
2021/03/24 03:36:27;;;;;;;101.75;48.95;;;5.90;90.20;;;;;;4980435;28;20487;-52
2021/03/24 03:39:16;;;;;;;98.97;48.83;;;5.80;90.30;;;;;;4997078;28;20081;-51
2021/03/24 03:42:04;;;;;;;101.05;49.85;;;5.90;90.30;;;;;;4985588;28;20054;-52
2021/03/24 03:44:52;;;;;;;99.28;49.10;;;5.90;90.20;;;;;;4964911;28;20057;-52
2021/03/24 03:47:43;;;;;;;98.57;49.80;;;5.90;90.20;;;;;;4976857;28;20056;-53
2021/03/24 03:50:28;;;;;;;105.90;52.95;;;5.90;90.20;;;;;;4969905;28;20415;-54
2021/03/24 03:53:35;;;;;;;104.00;51.40;;;5.90;90.10;;;;;;4993482;28;20065;-52
2021/03/24 03:56:35;;;;;;;112.78;53.80;;;5.90;90.20;;;;;;4988679;28;20051;-51
2021/03/24 03:59:34;;;;;;;103.45;51.05;;;5.90;90.20;;;;;;4986832;28;20056;-52
2021/03/24 04:02:42;;;;;;;103.35;51.00;;;5.90;90.20;;;;;;4984311;28;20391;-54
2021/03/24 04:05:35;;;;;;;104.85;50.05;;;5.90;90.20;;;;;;4992271;28;20384;-50
2021/03/24 04:08:22;;;;;;;;;;;5.80;90.30;;;;;;4993062;28;20046;-51
2021/03/24 04:11:10;;;;;;;108.80;52.10;;;5.80;90.30;;;;;;4992815;28;19961;-54
2021/03/24 04:13:59;;;;;;;112.57;52.30;;;5.80;90.20;;;;;;4977454;28;20039;-53
2021/03/24 04:16:46;;;;;;;106.63;52.03;;;5.80;90.30;;;;;;4989874;28;20400;-54
2021/03/24 04:19:37;;;;;;;110.32;52.53;;;5.70;90.30;;;;;;4992714;28;20056;-51
2021/03/24 04:22:29;;;;;;;113.40;53.65;;;5.70;90.50;;;;;;4992767;28;20054;-53
2021/03/24 04:25:22;;;;;;;118.40;55.20;;;5.60;90.60;;;;;;4989672;28;20479;-54
2021/03/24 04:28:11;;;;;;;114.68;54.53;;;5.60;90.60;;;;;;4985326;28;20050;-52
2021/03/24 04:31:01;;;;;;;115.63;54.42;;;5.60;90.70;;;;;;4990007;28;20526;-53
2021/03/24 04:33:47;;;;;;;112.35;53.58;;;5.50;90.70;;;;;;4979029;28;20046;-51
2021/03/24 04:36:38;;;;;;;116.60;55.13;;;5.50;90.80;;;;;;4991941;28;20061;-51
2021/03/24 04:39:34;;;;;;;119.90;55.92;;;5.50;90.90;;;;;;4992453;28;20050;-55
2021/03/24 04:42:42;;;;;;;120.60;55.17;;;5.50;90.90;;;;;;4992461;28;20081;-53
2021/03/24 04:45:57;;;;;;;120.72;56.67;;;5.40;91.00;;;;;;5004501;28;20039;-54
2021/03/24 04:48:51;;;;;;;127.95;55.88;;;5.30;91.00;;;;;;4992157;28;20054;-53
2021/03/24 04:51:38;;;;;;;124.85;56.50;;;5.30;91.10;;;;;;4969557;28;20049;-53
2021/03/24 04:54:36;;;;;;;129.05;57.85;;;5.30;91.20;;;;;;4990600;28;20043;-55
2021/03/24 04:57:25;;;;;;;122.70;55.97;;;5.20;91.20;;;;;;4982563;28;20046;-51
2021/03/24 05:00:31;;;;;;;124.22;55.13;;;5.20;91.30;;;;;;4988091;28;20043;-55
2021/03/24 05:03:23;;;;;;;122.53;54.40;;;5.10;91.30;;;;;;4991629;28;20046;-52
2021/03/24 05:06:26;;;;;;;130.75;57.15;;;5.10;91.30;;;;;;4986169;28;20054;-52
2021/03/24 05:09:12;;;;;;;120.38;54.60;;;5.10;91.40;;;;;;4977942;28;20073;-55
2021/03/24 05:12:05;;;;;;;133.45;56.22;;;5.10;91.40;;;;;;4991471;28;20101;-53
2021/03/24 05:14:52;;;;;;;131.60;56.00;;;5.10;91.40;;;;;;4991893;28;20400;-53
2021/03/24 05:17:41;;;;;;;125.93;56.53;;;5.10;91.40;;;;;;4990856;28;20092;-52
2021/03/24 05:20:41;;;;;;;135.50;57.72;;;5.10;91.40;;;;;;4991763;28;20482;-52
2021/03/24 05:23:28;;;;;;;141.35;57.53;;;5.20;91.50;;;;;;4990967;28;20196;-55
2021/03/24 05:26:17;;;;;;;133.43;57.22;;;5.10;91.50;;;;;;4990219;28;20578;-52
2021/03/24 05:29:11;;;;;;;140.02;58.30;;;5.10;91.70;;;;;;4978609;28;20049;-54
2021/03/24 05:31:57;;;;;;;134.80;58.97;;;5.00;91.60;;;;;;4986462;28;20050;-55
2021/03/24 05:34:45;;;;;;;133.32;56.72;;;5.00;91.60;;;;;;4990817;28;20133;-52
2021/03/24 05:37:32;;;;;;;131.70;54.92;;;5.00;91.70;;;;;;4971571;28;20050;-52
2021/03/24 05:40:42;;;;;;;138.07;57.65;;;5.00;91.80;;;;;;4981799;28;20054;-52
2021/03/24 05:43:40;;;;;;;137.25;57.42;;;5.00;91.80;;;;;;4990878;28;20057;-55
2021/03/24 05:46:40;;;;;;;140.43;55.92;;;5.00;91.80;;;;;;4986114;28;20046;-55
2021/03/24 05:49:36;;;;;;;129.25;55.58;;;5.00;91.90;;;;;;4984576;28;20042;-52
2021/03/24 05:53:00;;;;;;;133.45;56.53;;;4.90;92.00;;;;;;4984599;28;20046;-55
2021/03/24 05:55:48;;;;;;;;;;;5.00;91.90;;;;;;4985545;28;20078;-54
2021/03/24 05:58:37;;;;;;;139.13;55.80;;;5.00;91.80;;;;;;4979251;28;20496;-51
2021/03/24 06:01:35;;;;;;;123.88;54.33;;;5.00;91.90;;;;;;4990328;28;20053;-53
2021/03/24 06:04:47;;;;;;;130.55;54.38;;;5.00;91.80;;;;;;4984355;28;20042;-53
2021/03/24 06:08:04;;;;;;;121.85;54.33;;;4.90;91.80;;;;;;4971637;28;20057;-52
2021/03/24 06:11:19;;;;;;;131.95;55.58;;;4.90;91.80;;;;;;4995586;28;20092;-55
2021/03/24 06:14:24;;;;;;;127.95;54.45;;;4.90;91.80;;;;;;4989258;28;20081;-50
2021/03/24 06:17:33;;;;;;;127.93;53.00;;;4.90;91.80;;;;;;4989621;28;20049;-53
2021/03/24 06:20:49;;;;;;;129.18;52.55;;;5.00;91.80;;;;;;4990010;28;20046;-52
2021/03/24 06:24:09;;;;;;;129.15;54.88;;;5.00;91.90;;;;;;4988583;28;20507;-52
2021/03/24 06:27:22;;;;;;;125.05;54.13;;;5.00;91.80;;;;;;5001496;28;20046;-52
2021/03/24 06:30:31;;;;;;;124.07;53.65;;;5.00;91.80;;;;;;4985653;28;20200;-53
2021/03/24 06:33:45;;;;;;;129.20;53.25;;;5.10;91.90;;;;;;4984089;28;20046;-53
2021/03/24 06:37:02;;;;;;;119.07;53.80;;;5.20;91.80;;;;;;4996290;28;20125;-54
2021/03/24 06:40:09;;;;;;;125.82;53.63;;;5.20;91.70;;;;;;4990559;28;20061;-55
2021/03/24 06:43:02;;;;;;;117.28;51.58;;;5.40;91.50;;;;;;5002205;28;20035;-52
2021/03/24 06:45:48;;;;;;;;;;;5.40;91.50;;;;;;4989599;28;20522;-51
2021/03/24 06:49:00;;;;;;;117.00;52.70;;;5.50;91.40;;;;;;4989172;28;20290;-53
2021/03/24 06:52:28;;;;;;;119.60;53.28;;;5.50;91.30;;;;;;4983419;28;20080;-53
2021/03/24 06:55:40;;;;;;;122.43;52.63;;;5.50;91.50;;;;;;4982568;28;20860;-51
2021/03/24 06:58:51;;;;;;;119.78;53.67;;;5.60;91.50;;;;;;4987704;28;20395;-52
2021/03/24 07:01:43;;;;;;;117.28;53.60;;;5.60;91.40;;;;;;4982964;28;20050;-53
2021/03/24 07:04:47;;;;;;;125.47;54.13;;;5.70;91.50;;;;;;4984608;28;20043;-54
2021/03/24 07:08:06;;;;;;;115.88;52.90;;;5.70;91.40;;;;;;4993278;28;20050;-53
2021/03/24 07:11:22;;;;;;;120.78;52.97;;;5.70;91.40;;;;;;4988918;28;20133;-51
2021/03/24 07:14:53;;;;;;;116.50;52.75;;;5.80;91.40;;;;;;4985435;28;20487;-53
2021/03/24 07:17:55;;;;;;;120.75;54.03;;;5.90;91.40;;;;;;4974923;28;20077;-54
2021/03/24 07:21:09;;;;;;;111.32;54.85;;;6.00;91.30;;;;;;4992535;28;20042;-52
2021/03/24 07:24:45;;;;;;;112.85;52.92;;;6.00;91.20;;;;;;4990091;28;20046;-53
2021/03/24 07:28:05;;;;;;;114.03;53.05;;;6.10;91.20;;;;;;4985558;28;20054;-52
2021/03/24 07:31:34;;;;;;;115.20;55.53;;;6.20;91.10;;;;;;5000093;28;20046;-53
2021/03/24 07:34:38;;;;;;;116.85;53.78;;;6.40;91.10;;;;;;4982262;28;20043;-51
2021/03/24 07:37:39;;;;;;;111.93;52.85;;;6.40;91.00;;;;;;4990099;28;20050;-51
2021/03/24 07:40:44;;;;;;;115.22;54.72;;;6.60;90.80;;;;;;4989497;28;20058;-54
2021/03/24 07:43:58;;;;;;;112.78;53.40;;;6.70;90.60;;;;;;4986924;28;20343;-53
2021/03/24 07:47:25;;;;;;;116.28;55.15;;;6.80;90.80;;;;;;4979672;28;20046;-54
2021/03/24 07:50:36;;;;;;;107.43;52.40;;;7.00;90.60;;;;;;4993545;28;20380;-51
2021/03/24 07:53:46;;;;;;;106.57;52.42;;;7.00;90.30;;;;;;4975541;28;20075;-51
2021/03/24 07:56:42;;;;;;;111.13;52.88;;;7.20;90.30;;;;;;4991795;28;20052;-51
2021/03/24 08:00:05;;;;;;;105.95;53.45;;;7.40;90.10;;;;;;4966769;28;20082;-51
2021/03/24 08:02:59;;;;;;;102.47;50.55;;;7.50;90.00;;;;;;4984447;28;20034;-53
2021/03/24 08:06:11;;;;;;;102.03;50.35;;;7.60;89.50;;;;;;5004216;28;20042;-52
2021/03/24 08:09:02;;;;;;;97.72;48.33;;;7.80;89.20;;;;;;4985070;28;20081;-51
2021/03/24 08:11:59;;;;;;;101.35;49.17;;;8.00;88.90;;;;;;4985160;28;20042;-54
2021/03/24 08:14:58;;;;;;;98.60;49.15;;;8.10;88.00;;;;;;4992482;28;20546;-54
2021/03/24 08:18:10;;;;;;;92.05;46.40;;;8.20;86.70;;;;;;4968351;28;20042;-54
2021/03/24 08:20:55;;;;;;;95.33;47.83;;;8.40;86.90;;;;;;4990359;28;20064;-53
2021/03/24 08:23:35;;;;;;;87.45;46.15;;;8.40;86.60;;;;;;4984671;28;20725;-54
2021/03/24 08:26:19;;;;;;;87.82;44.65;;;8.60;86.60;;;;;;4980011;28;20042;-51
2021/03/24 08:29:00;;;;;;;80.53;45.38;;;8.70;85.70;;;;;;4983910;28;20040;-54
2021/03/24 08:32:02;;;;;;;83.82;45.05;;;8.80;85.40;;;;;;4983826;28;20054;-51
2021/03/24 08:34:57;;;;;;;84.88;44.83;;;8.90;84.50;;;;;;4983889;28;20485;-52
2021/03/24 08:37:50;;;;;;;87.53;45.55;;;9.00;84.20;;;;;;4983783;28;20064;-53
2021/03/24 08:40:37;;;;;;;80.82;45.75;;;9.20;84.40;;;;;;4984765;28;20494;-51
2021/03/24 08:43:20;;;;;;;83.53;44.10;;;9.30;84.20;;;;;;4976524;28;20034;-54
2021/03/24 08:46:10;;;;;;;82.40;44.42;;;9.40;83.30;;;;;;4982266;28;20435;-54
2021/03/24 08:48:53;;;;;;;76.65;42.03;;;9.50;83.10;;;;;;4967080;28;20377;-53
2021/03/24 08:51:51;;;;;;;84.45;42.50;;;9.70;82.70;;;;;;4965475;28;20365;-53
2021/03/24 08:54:41;;;;;;;93.72;44.05;;;9.80;81.70;;;;;;4978568;28;20317;-52
2021/03/24 08:57:31;;;;;;;63.40;36.65;;;9.90;81.10;;;;;;4980652;28;20502;-55
2021/03/24 09:00:18;;;;;;;65.93;36.65;;;10.00;80.10;;;;;;4984198;28;20061;-54
2021/03/24 09:03:12;;;;;;;66.75;36.65;;;10.00;78.90;;;;;;4984834;28;20100;-55
2021/03/24 09:05:58;;;;;;;71.72;40.00;;;10.00;78.50;;;;;;4987279;28;20046;-55
2021/03/24 09:08:30;;;;;;;67.18;37.08;;;10.00;78.60;;;;;;4981250;28;20050;-54
2021/03/24 09:11:14;;;;;;;67.57;36.03;;;10.00;78.40;;;;;;4981427;28;20521;-54
2021/03/24 09:14:25;;;;;;;63.40;36.70;;;10.00;78.30;;;;;;4976626;28;20042;-53
2021/03/24 09:17:14;;;;;;;65.82;38.65;;;10.10;77.90;;;;;;4961474;28;20064;-54
2021/03/24 09:20:23;;;;;;;64.72;37.25;;;10.20;77.40;;;;;;4981816;28;20057;-53
2021/03/24 09:23:23;;;;;;;68.30;38.33;;;10.20;77.50;;;;;;4986104;28;20168;-51
2021/03/24 09:26:04;;;;;;;67.72;36.17;;;10.30;78.40;;;;;;4982070;28;20043;-53
2021/03/24 09:28:49;;;;;;;54.37;33.50;;;10.40;77.80;;;;;;4983542;28;20435;-54
2021/03/24 09:31:37;;;;;;;62.03;35.75;;;10.50;77.20;;;;;;4968081;28;20676;-54
2021/03/24 09:34:16;;;;;;;62.42;33.20;;;10.50;77.20;;;;;;4991854;28;20125;-54
2021/03/24 09:36:57;;;;;;;58.53;30.35;;;10.60;75.40;;;;;;4969315;28;20073;-54
2021/03/24 09:39:41;;;;;;;52.10;30.20;;;10.70;75.10;;;;;;4973736;28;20050;-51
2021/03/24 09:42:26;;;;;;;52.08;30.88;;;10.80;74.80;;;;;;4984648;28;20407;-54
2021/03/24 09:45:08;;;;;;;61.65;35.47;;;10.80;74.10;;;;;;4987686;28;20077;-52
2021/03/24 09:47:42;;;;;;;53.42;30.25;;;11.00;75.20;;;;;;4987608;28;20057;-55
2021/03/24 09:50:11;;;;;;;59.45;32.95;;;11.00;74.90;;;;;;4989876;28;20042;-53
2021/03/24 09:52:55;;;;;;;55.67;31.20;;;11.10;74.40;;;;;;4978314;28;20089;-53
2021/03/24 09:55:29;;;;;;;47.95;28.83;;;11.10;73.30;;;;;;4992361;28;20046;-54
2021/03/24 09:58:06;;;;;;;49.25;28.08;;;11.20;72.80;;;;;;4990805;28;20065;-53
2021/03/24 10:00:38;;;;;;;50.70;29.52;;;11.30;72.90;;;;;;4991142;28;20042;-54
2021/03/24 10:03:15;;;;;;;;;;;11.40;72.80;;;;;;4992657;28;20120;-54
2021/03/24 10:05:53;;;;;;;44.13;25.85;;;11.40;71.80;;;;;;4991955;28;20345;-51
2021/03/24 10:08:29;;;;;;;46.50;26.15;;;11.40;70.10;;;;;;4988551;28;20054;-54
2021/03/24 10:11:01;;;;;;;44.15;27.08;;;11.50;72.00;;;;;;4980494;28;20050;-56
2021/03/24 10:13:30;;;;;;;;;;;11.60;71.60;;;;;;5005849;28;20038;-51
2021/03/24 10:16:21;;;;;;;46.65;27.15;;;11.70;70.20;;;;;;4991966;28;19922;-52
2021/03/24 10:19:01;;;;;;;44.10;26.70;;;11.80;69.80;;;;;;4979603;28;20050;-52
2021/03/24 10:21:45;;;;;;;45.00;27.00;;;11.80;70.30;;;;;;4989607;28;20038;-52
2021/03/24 10:24:22;;;;;;;44.28;26.95;;;11.80;70.10;;;;;;4991253;28;20402;-54
2021/03/24 10:27:03;;;;;;;45.95;26.77;;;11.80;70.10;;;;;;4987697;28;20466;-52
2021/03/24 10:29:38;;;;;;;48.78;27.85;;;11.90;70.30;;;;;;4989907;28;20046;-54
2021/03/24 10:32:18;;;;;;;45.03;26.80;;;12.00;70.10;;;;;;4986540;28;20053;-51
2021/03/24 10:34:47;;;;;;;49.42;27.35;;;12.00;68.90;;;;;;4989283;28;20140;-54
2021/03/24 10:37:44;;;;;;;48.58;27.30;;;12.00;69.30;;;;;;4986007;28;20066;-53
2021/03/24 10:40:30;;;;;;;41.80;25.50;;;12.20;69.60;;;;;;4988394;28;20035;-52
2021/03/24 10:43:15;;;;;;;46.30;27.25;;;12.40;68.10;;;;;;4989844;28;20693;-53
2021/03/24 10:46:00;;;;;;;44.45;26.02;;;12.50;67.90;;;;;;4991448;28;20042;-55
2021/03/24 10:48:32;;;;;;;44.35;27.08;;;12.40;67.50;;;;;;4989369;28;20044;-52
2021/03/24 10:51:00;;;;;;;45.75;27.80;;;12.40;67.90;;;;;;4989948;28;20038;-54
2021/03/24 10:53:29;;;;;;;43.05;26.38;;;12.60;68.40;;;;;;4991330;28;20479;-54
2021/03/24 10:56:08;;;;;;;48.13;26.67;;;12.60;67.90;;;;;;4991726;28;20042;-54
2021/03/24 10:59:04;;;;;;;49.03;27.63;;;12.60;67.70;;;;;;4992380;28;20507;-54
2021/03/24 11:01:48;;;;;;;45.30;26.60;;;12.70;66.60;;;;;;4994636;28;20026;-54
2021/03/24 11:04:27;;;;;;;45.78;26.63;;;12.70;65.80;;;;;;4986824;28;20054;-55
2021/03/24 11:07:20;;;;;;;43.80;25.20;;;12.70;66.60;;;;;;4994039;28;20041;-52
2021/03/24 11:09:58;;;;;;;45.25;25.35;;;12.70;66.20;;;;;;4987420;28;20045;-54
2021/03/24 11:12:40;;;;;;;45.22;26.33;;;12.70;66.30;;;;;;4984161;28;20069;-53
2021/03/24 11:15:27;;;;;;;45.17;27.25;;;12.80;66.80;;;;;;4988698;28;20418;-53
2021/03/24 11:18:03;;;;;;;49.03;28.35;;;12.90;67.80;;;;;;4989798;28;20502;-50
2021/03/24 11:20:45;;;;;;;46.92;26.55;;;13.00;68.10;;;;;;4994740;28;20487;-53
2021/03/24 11:23:17;;;;;;;41.90;25.45;;;13.20;66.80;;;;;;4993478;28;20053;-53
2021/03/24 11:25:58;;;;;;;44.65;26.08;;;13.30;65.80;;;;;;4985169;28;20056;-53
2021/03/24 11:28:42;;;;;;;42.70;26.25;;;13.40;65.70;;;;;;4992891;28;20038;-53
2021/03/24 11:31:18;;;;;;;44.80;26.05;;;13.40;64.80;;;;;;4990525;28;20414;-51
2021/03/24 11:34:02;;;;;;;45.55;24.67;;;13.50;65.30;;;;;;4987583;28;20534;-52
2021/03/24 11:36:33;;;;;;;43.20;25.40;;;13.60;64.20;;;;;;4990046;28;20054;-53
2021/03/24 11:39:11;;;;;;;47.53;26.05;;;13.60;64.00;;;;;;4992613;28;20045;-50
2021/03/24 11:41:39;;;;;;;45.35;25.60;;;13.50;63.10;;;;;;4984563;28;20042;-53
2021/03/24 11:44:17;;;;;;;42.10;25.15;;;13.50;64.50;;;;;;4981776;28;20031;-54
2021/03/24 11:46:42;;;;;;;44.20;27.58;;;13.50;63.40;;;;;;4978892;28;20419;-53
2021/03/24 11:49:11;;;;;;;42.83;26.20;;;13.50;64.10;;;;;;4984824;28;20050;-54
2021/03/24 11:52:00;;;;;;;44.97;27.00;;;13.50;63.50;;;;;;4981893;28;20043;-54
2021/03/24 11:54:36;;;;;;;46.85;27.35;;;13.50;63.30;;;;;;4990311;28;20055;-54
2021/03/24 11:57:43;;;;;;;42.78;26.10;;;13.60;63.80;;;;;;4977085;28;20496;-54
2021/03/24 12:00:43;;;;;;;45.80;27.45;;;13.70;63.90;;;;;;4991031;28;20093;-52
2021/03/24 12:03:26;;;;;;;51.15;27.65;;;13.70;63.90;;;;;;4993290;28;20554;-54
2021/03/24 12:06:15;;;;;;;46.47;27.95;;;14.00;63.90;;;;;;4991473;28;20058;-51
2021/03/24 12:09:01;;;;;;;50.47;28.98;;;14.00;64.80;;;;;;4994138;28;20045;-52
2021/03/24 12:11:30;;;;;;;48.33;27.88;;;14.00;63.70;;;;;;4985568;28;20116;-54
2021/03/24 12:14:27;;;;;;;49.80;30.02;;;14.00;64.10;;;;;;4992374;28;20122;-55
2021/03/24 12:17:01;;;;;;;46.65;28.85;;;13.90;63.10;;;;;;4979393;28;20072;-55
2021/03/24 12:19:32;;;;;;;49.65;29.40;;;13.90;64.50;;;;;;4992117;28;20514;-55
2021/03/24 12:22:18;;;;;;;48.88;28.98;;;13.80;64.90;;;;;;4993306;28;20034;-54
2021/03/24 12:24:46;;;;;;;48.72;29.17;;;13.90;63.90;;;;;;4985544;28;20518;-50
2021/03/24 12:27:19;;;;;;;46.15;29.05;;;13.90;63.60;;;;;;4993067;28;20041;-53
2021/03/24 12:29:57;;;;;;;46.85;29.67;;;13.90;63.50;;;;;;4991981;28;20533;-52
2021/03/24 12:32:26;;;;;;;51.58;29.60;;;14.00;64.10;;;;;;4992779;28;20568;-55
2021/03/24 12:34:52;;;;;;;50.88;29.55;;;14.10;64.60;;;;;;4989166;28;20125;-53
2021/03/24 12:37:49;;;;;;;49.45;29.15;;;14.20;64.00;;;;;;4989314;28;20042;-51
2021/03/24 12:40:19;;;;;;;52.65;29.17;;;14.30;64.60;;;;;;4992156;28;20042;-49
2021/03/24 12:42:45;;;;;;;47.00;29.08;;;14.40;64.00;;;;;;4992370;28;20038;-52
2021/03/24 12:45:32;;;;;;;48.40;29.35;;;14.60;64.50;;;;;;4990216;28;20053;-50
2021/03/24 12:48:07;;;;;;;50.45;28.85;;;14.70;63.10;;;;;;4991513;28;20050;-52
2021/03/24 12:50:48;;;;;;;47.70;29.00;;;14.70;62.30;;;;;;4991773;28;20038;-49
2021/03/24 12:53:28;;;;;;;51.63;30.42;;;14.70;63.00;;;;;;4989190;28;20042;-54
2021/03/24 12:56:13;;;;;;;53.90;29.42;;;14.60;62.20;;;;;;4991237;28;20041;-53
2021/03/24 12:58:50;;;;;;;55.40;30.15;;;14.60;62.00;;;;;;4991268;28;20042;-52
2021/03/24 13:01:34;;;;;;;49.13;29.30;;;14.60;62.40;;;;;;4991487;28;20117;-53
2021/03/24 13:04:06;;;;;;;47.60;30.08;;;14.60;62.20;;;;;;4991779;28;20134;-53
2021/03/24 13:07:10;;;;;;;48.03;29.85;;;14.70;62.10;;;;;;4991640;28;20046;-54
2021/03/24 13:09:49;;;;;;;48.13;30.38;;;14.70;62.80;;;;;;4998450;28;20117;-51
2021/03/24 13:12:21;;;;;;;50.72;30.45;;;14.70;62.80;;;;;;4987208;28;20045;-51
2021/03/24 13:14:58;;;;;;;53.42;30.75;;;14.80;62.70;;;;;;4990888;28;20120;-51
2021/03/24 13:17:48;;;;;;;47.95;30.55;;;14.80;62.30;;;;;;4985626;28;20034;-51
2021/03/24 13:20:51;;;;;;;54.72;32.30;;;14.70;60.70;;;;;;4989854;28;20042;-51
2021/03/24 13:23:33;;;;;;;50.22;30.65;;;14.70;61.10;;;;;;4991753;28;20097;-54
2021/03/24 13:26:27;;;;;;;53.90;30.67;;;14.70;62.40;;;;;;4989806;28;20097;-53
2021/03/24 13:29:12;;;;;;;49.20;31.08;;;14.70;63.40;;;;;;4990444;28;20128;-51
2021/03/24 13:31:53;;;;;;;53.58;32.30;;;14.60;62.30;;;;;;4990774;28;20043;-54
2021/03/24 13:34:41;;;;;;;52.75;32.03;;;14.70;62.80;;;;;;4972381;28;20048;-50
2021/03/24 13:37:17;;;;;;;50.45;32.05;;;14.70;63.20;;;;;;4990614;28;20105;-54
2021/03/24 13:40:03;;;;;;;49.65;31.15;;;14.80;63.30;;;;;;4992437;28;20146;-54
2021/03/24 13:42:37;;;;;;;53.63;32.30;;;14.90;61.50;;;;;;4990627;28;20034;-52
2021/03/24 13:45:24;;;;;;;54.25;32.83;;;14.80;62.00;;;;;;4983194;28;20307;-52
2021/03/24 13:47:56;;;;;;;52.15;33.28;;;14.80;61.90;;;;;;4990965;28;20901;-52
2021/03/24 13:50:27;;;;;;;49.88;32.03;;;14.80;61.30;;;;;;4991877;28;20046;-53
2021/03/24 13:52:58;;;;;;;54.65;31.10;;;14.80;60.80;;;;;;4976070;28;20038;-51
2021/03/24 13:55:46;;;;;;;50.15;30.48;;;14.60;60.70;;;;;;4974885;28;20050;-54
2021/03/24 13:58:28;;;;;;;47.40;30.92;;;14.60;60.40;;;;;;4994980;28;20073;-54
2021/03/24 14:01:13;;;;;;;50.55;28.98;;;14.60;60.10;;;;;;4988577;28;20109;-55
2021/03/24 14:03:52;;;;;;;51.40;31.23;;;14.50;60.20;;;;;;5003088;28;20030;-51
2021/03/24 14:06:56;;;;;;;50.95;29.27;;;14.60;60.60;;;;;;4990768;28;20507;-52
2021/03/24 14:09:30;;;;;;;50.35;29.25;;;14.50;59.20;;;;;;4987410;28;20050;-52
2021/03/24 14:12:23;;;;;;;48.85;28.88;;;14.40;60.20;;;;;;4989778;28;20061;-53
2021/03/24 14:15:01;;;;;;;52.08;29.48;;;14.30;60.50;;;;;;4993624;28;20042;-52
2021/03/24 14:17:36;;;;;;;46.25;28.08;;;14.30;60.80;;;;;;4990424;28;20054;-52
2021/03/24 14:20:19;;;;;;;49.42;30.52;;;14.20;61.80;;;;;;4988744;28;20275;-52
2021/03/24 14:22:57;;;;;;;;;;;14.10;61.80;;;;;;4985073;28;20089;-51
2021/03/24 14:25:32;;;;;;;52.25;30.17;;;14.20;61.70;;;;;;4991503;28;20049;-52
2021/03/24 14:28:20;;;;;;;45.75;28.00;;;14.20;60.80;;;;;;4989748;28;20046;-55